Time;durP1;ratioP1;P1;durP2;ratioP2;P2;SDS_P1;SDS_P2;PMS_P1;PMS_P2;Temp;Humidity;BMP_temperature;BMP_pressure;BME280_temperature;BME280_humidity;BME280_pressure;Samples;Min_cycle;Max_cycle;Signal;HPM_P1;HPM_P2
2022/10/03 00:00:35;;;;;;;10.53;3.33;;;;;;;-145.69;100.00;72319.81;5035441;28;20204;-73
2022/10/03 00:03:31;;;;;;;11.17;3.40;;;;;;;-145.69;100.00;72329.78;5035077;28;20200;-74
2022/10/03 00:06:09;;;;;;;9.03;3.27;;;;;;;-145.69;100.00;72327.78;5035033;28;20228;-74
2022/10/03 00:09:04;;;;;;;10.97;3.43;;;;;;;-145.69;100.00;72325.81;5034859;28;20212;-73
2022/10/03 00:11:43;;;;;;;16.20;3.67;;;;;;;-145.69;100.00;72333.75;5034696;28;20204;-75
2022/10/03 00:14:21;;;;;;;9.23;3.50;;;;;;;-145.69;100.00;72333.75;5034785;28;20735;-74
2022/10/03 00:16:53;;;;;;;14.73;3.37;;;;;;;-145.69;100.00;72341.72;5034638;28;20266;-74
2022/10/03 00:19:30;;;;;;;10.07;3.47;;;;;;;-145.69;100.00;72345.69;5034743;28;20200;-75
2022/10/03 00:22:08;;;;;;;6.90;3.23;;;;;;;-145.69;100.00;72361.63;5034591;28;20199;-74
2022/10/03 00:24:45;;;;;;;13.63;3.57;;;;;;;-145.69;100.00;72377.53;5034661;28;20211;-74
2022/10/03 00:27:18;;;;;;;9.43;3.60;;;;;;;-145.69;100.00;72391.47;5034288;28;20235;-74
2022/10/03 00:30:13;;;;;;;9.03;3.60;;;;;;;-145.69;100.00;72389.50;5034442;28;20203;-74
2022/10/03 00:32:57;;;;;;;14.60;4.30;;;;;;;-145.69;100.00;72397.44;5034473;28;20296;-74
2022/10/03 00:35:40;;;;;;;9.50;3.70;;;;;;;-145.69;100.00;72399.44;5034501;28;20218;-74
2022/10/03 00:38:19;;;;;;;8.63;3.60;;;;;;;-145.69;100.00;72405.41;5034521;28;20566;-74
2022/10/03 00:41:30;;;;;;;8.37;4.27;;;;;;;-145.69;100.00;72413.38;5033635;28;20200;-74
2022/10/03 00:44:28;;;;;;;8.33;4.70;;;;;;;-145.69;100.00;72417.34;4987197;28;20290;-74
2022/10/03 00:47:21;;;;;;;10.20;4.80;;;;;;;-145.69;100.00;72425.31;5033990;28;20224;-74
2022/10/03 00:50:30;;;;;;;7.37;4.13;;;;;;;-145.69;100.00;72409.38;5029046;28;20562;-74
2022/10/03 00:53:22;;;;;;;17.57;4.73;;;;;;;-145.69;100.00;72405.41;5014477;28;20208;-74
2022/10/03 00:56:15;;;;;;;9.43;4.57;;;;;;;-145.69;100.00;72397.44;5014311;28;20209;-74
2022/10/03 00:58:57;;;;;;;8.77;4.07;;;;;;;-145.69;100.00;72397.44;5014306;28;20259;-74
2022/10/03 01:01:34;;;;;;;6.67;3.90;;;;;;;-145.69;100.00;72389.50;5014219;28;20207;-73
2022/10/03 01:04:20;;;;;;;8.30;3.73;;;;;;;-145.69;100.00;72391.47;5014067;28;20204;-74
2022/10/03 01:06:56;;;;;;;7.97;3.60;;;;;;;-145.69;100.00;72409.38;5013877;28;20228;-74
2022/10/03 01:09:37;;;;;;;7.23;4.00;;;;;;;-145.69;100.00;72441.25;5013908;28;20288;-74
2022/10/03 01:12:15;;;;;;;8.93;3.60;;;;;;;-145.69;100.00;72469.09;5014061;28;20223;-73
2022/10/03 01:15:09;;;;;;;8.37;3.50;;;;;;;-145.69;100.00;72475.06;5013892;28;20207;-74
2022/10/03 01:17:48;;;;;;;9.40;3.80;;;;;;;-145.69;100.00;72489.00;5013532;28;20713;-75
2022/10/03 01:20:27;;;;;;;6.50;3.10;;;;;;;-145.69;100.00;72504.94;5017578;28;20227;-73
2022/10/03 01:23:51;;;;;;;9.57;4.10;;;;;;;-145.69;100.00;72504.94;5032931;28;20211;-74
2022/10/03 01:26:44;;;;;;;7.57;4.00;;;;;;;-145.69;100.00;72532.78;4972314;28;20712;-74
2022/10/03 01:32:03;;;;;;;8.00;3.57;;;;;;;-145.69;100.00;72580.56;5029276;28;20701;-74
2022/10/03 01:34:39;;;;;;;9.20;3.23;;;;;;;-145.69;100.00;72604.44;5033355;28;20200;-75
2022/10/03 01:37:12;;;;;;;9.50;3.40;;;;;;;-145.69;100.00;72612.41;5033430;28;20242;-74
2022/10/03 01:39:50;;;;;;;9.50;4.33;;;;;;;-145.69;100.00;72620.38;5033376;28;20206;-74
2022/10/03 01:42:30;;;;;;;8.87;5.20;;;;;;;-145.69;100.00;72636.31;5033121;28;20204;-74
2022/10/03 01:45:12;;;;;;;12.97;6.27;;;;;;;-145.69;100.00;72642.28;5033121;28;20204;-75
2022/10/03 01:47:46;;;;;;;8.80;5.37;;;;;;;-145.69;100.00;72664.16;5033122;28;20231;-74
2022/10/03 01:50:19;;;;;;;24.07;6.90;;;;;;;-145.69;100.00;72656.22;5032969;28;20279;-74
2022/10/03 01:52:54;;;;;;;13.33;6.20;;;;;;;-145.69;100.00;72656.22;5032370;28;20230;-74
2022/10/03 01:55:28;;;;;;;17.70;6.80;;;;;;;-145.69;100.00;72656.22;5033121;28;20203;-74
2022/10/03 01:58:01;;;;;;;9.77;5.47;;;;;;;-145.69;100.00;72672.13;5033160;28;20570;-74
2022/10/03 02:00:36;;;;;;;8.00;4.80;;;;;;;-145.69;100.00;72690.03;5033115;28;20200;-74
2022/10/03 02:03:09;;;;;;;14.00;6.60;;;;;;;-145.69;100.00;72672.13;5032925;28;20203;-74
2022/10/03 02:05:41;;;;;;;17.97;8.20;;;;;;;-145.69;100.00;72654.22;5033021;28;20226;-74
2022/10/03 02:08:17;;;;;;;21.87;7.87;;;;;;;-145.69;100.00;72644.25;5032466;28;20650;-74
2022/10/03 02:10:50;;;;;;;18.53;7.60;;;;;;;-145.69;100.00;72632.31;5032961;28;20203;-74
2022/10/03 02:13:23;;;;;;;15.27;7.87;;;;;;;-145.69;100.00;72636.31;5032872;28;20233;-74
2022/10/03 02:16:01;;;;;;;17.60;7.30;;;;;;;-145.69;100.00;72636.31;5032565;28;20239;-74
2022/10/03 02:18:37;;;;;;;18.07;7.93;;;;;;;-145.69;100.00;72622.38;5032381;28;20666;-73
2022/10/03 02:21:12;;;;;;;21.48;10.32;;;;;;;-145.69;100.00;72626.34;5031920;28;20449;-74
2022/10/03 02:23:42;;;;;;;20.57;8.87;;;;;;;-145.69;100.00;72616.41;5032819;28;20204;-73
2022/10/03 02:26:46;;;;;;;18.80;8.73;;;;;;;-145.69;100.00;72618.38;5032514;28;20682;-75
2022/10/03 02:29:49;;;;;;;15.40;7.67;;;;;;;-145.69;100.00;72620.38;5032809;28;20196;-74
2022/10/03 02:32:58;;;;;;;16.83;8.00;;;;;;;-145.69;100.00;72620.38;5011667;28;20200;-74
2022/10/03 02:35:55;;;;;;;15.90;7.63;;;;;;;-145.69;100.00;72618.38;5032668;28;20231;-74
2022/10/03 02:38:48;;;;;;;19.13;6.90;;;;;;;-145.69;100.00;72612.41;5032656;28;20204;-74
2022/10/03 02:41:56;;;;;;;16.83;7.03;;;;;;;-145.69;100.00;72612.41;5032668;28;20196;-74
2022/10/03 02:44:57;;;;;;;18.23;7.43;;;;;;;-145.69;100.00;72608.44;5032496;28;20215;-74
2022/10/03 02:47:53;;;;;;;16.70;7.17;;;;;;;-145.69;100.00;72616.41;5032553;28;20228;-74
2022/10/03 02:50:54;;;;;;;14.27;6.53;;;;;;;-145.69;100.00;72620.38;5032162;28;20196;-74
2022/10/03 02:53:52;;;;;;;19.43;7.23;;;;;;;-145.69;100.00;72626.34;5032478;28;20203;-74
2022/10/03 02:56:50;;;;;;;16.63;6.37;;;;;;;-145.69;100.00;72608.44;4999538;28;20200;-74
2022/10/03 02:59:54;;;;;;;12.40;6.33;;;;;;;-145.69;100.00;72600.47;5032351;28;20647;-75
2022/10/03 03:02:45;;;;;;;13.73;6.93;;;;;;;-145.69;100.00;72588.53;5032564;28;20200;-74
2022/10/03 03:05:52;;;;;;;11.93;6.97;;;;;;;-145.69;100.00;72582.56;5035222;28;20215;-74
2022/10/03 03:08:48;;;;;;;12.73;6.03;;;;;;;-145.69;100.00;72590.53;5036176;28;20203;-75
2022/10/03 03:11:43;;;;;;;9.63;5.47;;;;;;;-145.69;100.00;72594.50;5035937;28;20204;-74
2022/10/03 03:14:49;;;;;;;21.23;7.10;;;;;;;-145.69;100.00;72592.50;5036111;28;20203;-74
2022/10/03 03:17:27;;;;;;;15.13;6.57;;;;;;;-145.69;100.00;72592.50;5035447;28;20247;-74
2022/10/03 03:20:40;;;;;;;11.73;6.47;;;;;;;-145.69;100.00;72574.59;5035567;28;20199;-74
2022/10/03 03:23:38;;;;;;;12.20;6.40;;;;;;;-145.69;100.00;72570.63;5011745;28;20206;-74
2022/10/03 03:26:37;;;;;;;12.87;5.73;;;;;;;-145.69;100.00;72580.56;5035589;28;20200;-76
2022/10/03 03:29:16;;;;;;;14.80;6.60;;;;;;;-145.69;100.00;72592.50;5020672;28;20207;-73
2022/10/03 03:31:54;;;;;;;12.93;5.97;;;;;;;-145.69;100.00;72616.41;5035851;28;20204;-73
2022/10/03 03:34:28;;;;;;;22.67;6.70;;;;;;;-145.69;100.00;72612.41;5035616;28;20212;-73
2022/10/03 03:37:03;;;;;;;11.33;5.93;;;;;;;-145.69;100.00;72620.38;5035412;28;20684;-74
2022/10/03 03:39:47;;;;;;;13.63;6.23;;;;;;;-145.69;100.00;72630.31;5035628;28;20196;-73
2022/10/03 03:43:00;;;;;;;18.10;7.57;;;;;;;-145.69;100.00;72602.47;5035589;28;20578;-75
2022/10/03 03:45:49;;;;;;;13.80;6.77;;;;;;;-145.69;100.00;72604.44;4993177;28;20201;-75
2022/10/03 03:48:37;;;;;;;13.33;6.90;;;;;;;-145.69;100.00;72606.44;5035474;28;20235;-75
2022/10/03 03:51:17;;;;;;;11.50;5.57;;;;;;;-145.69;100.00;72612.41;5020101;28;20187;-75
2022/10/03 03:54:18;;;;;;;10.70;6.40;;;;;;;-145.69;100.00;72622.38;5035009;28;20561;-74
2022/10/03 03:57:21;;;;;;;13.87;6.93;;;;;;;-145.69;100.00;72614.41;5035045;28;20214;-74
2022/10/03 04:00:03;;;;;;;10.53;5.87;;;;;;;-145.69;100.00;72618.38;5024824;28;20223;-74
2022/10/03 04:02:45;;;;;;;8.37;5.37;;;;;;;-145.69;100.00;72628.34;5035091;28;20246;-73
2022/10/03 04:05:25;;;;;;;9.77;5.43;;;;;;;-145.69;100.00;72630.31;5035089;28;20235;-74
2022/10/03 04:08:10;;;;;;;12.20;5.67;;;;;;;-145.69;100.00;72646.25;5034883;28;20227;-74
2022/10/03 04:10:47;;;;;;;12.33;6.40;;;;;;;-145.69;100.00;72648.25;5035018;28;20223;-74
2022/10/03 04:13:35;;;;;;;14.47;7.30;;;;;;;-145.69;100.00;72632.31;5035083;28;20203;-74
2022/10/03 04:18:56;;;;;;;11.87;6.33;;;;;;;-145.69;100.00;72646.25;5034147;28;20224;-74
2022/10/03 04:19:22;;;;;;;14.17;6.30;;;;;;;-145.69;100.00;72640.28;5034564;28;20276;-74
2022/10/03 04:22:11;;;;;;;52.87;8.70;;;;;;;-145.69;100.00;72636.31;5024842;28;20531;-74
2022/10/03 04:25:00;;;;;;;12.57;6.73;;;;;;;-145.69;100.00;72642.28;5034502;28;20299;-74
2022/10/03 04:27:40;;;;;;;10.93;5.70;;;;;;;-145.69;100.00;72668.16;5034066;28;20318;-74
2022/10/03 04:30:13;;;;;;;16.27;7.77;;;;;;;-145.69;100.00;72672.13;5014794;28;20204;-75
2022/10/03 04:33:13;;;;;;;19.83;8.83;;;;;;;-145.69;100.00;72664.16;5014705;28;20201;-75
2022/10/03 04:36:11;;;;;;;18.93;8.57;;;;;;;-145.69;100.00;72664.16;5002660;28;20204;-74
2022/10/03 04:38:50;;;;;;;21.03;8.43;;;;;;;-145.69;100.00;72690.03;5014549;28;20205;-75
2022/10/03 04:41:26;;;;;;;19.67;7.53;;;;;;;-145.69;100.00;72692.03;5014458;28;20205;-74
2022/10/03 04:43:59;;;;;;;13.97;7.47;;;;;;;-145.69;100.00;72705.97;5014691;28;20197;-75
2022/10/03 04:46:32;;;;;;;17.57;7.63;;;;;;;-145.69;100.00;72692.03;5014054;28;20255;-75
2022/10/03 04:49:06;;;;;;;19.17;7.53;;;;;;;-145.69;100.00;72680.09;5016755;28;20212;-74
2022/10/03 04:51:44;;;;;;;19.57;8.07;;;;;;;-145.69;100.00;72660.19;5034060;28;20690;-74
2022/10/03 04:54:22;;;;;;;28.47;10.60;;;;;;;-145.69;100.00;72628.34;5033786;28;20650;-74
2022/10/03 04:56:57;;;;;;;22.83;9.93;;;;;;;-145.69;100.00;72616.41;5034112;28;20210;-74
2022/10/03 04:59:38;;;;;;;21.70;9.67;;;;;;;-145.69;100.00;72612.41;5034033;28;20203;-74
2022/10/03 05:02:18;;;;;;;21.23;9.87;;;;;;;-145.69;100.00;72620.38;5033846;28;20204;-74
2022/10/03 05:05:08;;;;;;;31.07;11.47;;;;;;;-145.69;100.00;72610.44;5032552;28;20609;-74
2022/10/03 05:07:45;;;;;;;24.97;9.50;;;;;;;-145.69;100.00;72614.41;5033639;28;20223;-74
2022/10/03 05:10:40;;;;;;;23.23;9.57;;;;;;;-145.69;100.00;72616.41;5033829;28;20200;-74
2022/10/03 05:13:13;;;;;;;26.83;10.10;;;;;;;-145.69;100.00;72608.44;5033735;28;20250;-74
2022/10/03 05:15:50;;;;;;;25.57;10.07;;;;;;;-145.69;100.00;72616.41;5033489;28;20204;-74
2022/10/03 05:18:23;;;;;;;17.10;8.27;;;;;;;-145.69;100.00;72620.38;5033528;28;20211;-74
2022/10/03 05:20:55;;;;;;;14.37;7.77;;;;;;;-145.69;100.00;72628.34;5032932;28;20203;-74
2022/10/03 05:23:39;;;;;;;14.47;7.77;;;;;;;-145.69;100.00;72640.28;5033344;28;20739;-74
2022/10/03 05:26:15;;;;;;;12.77;7.80;;;;;;;-145.69;100.00;72664.16;5032272;28;21027;-74
2022/10/03 05:28:50;;;;;;;12.77;6.70;;;;;;;-145.69;100.00;72698.00;5033380;28;20232;-74
2022/10/03 05:31:29;;;;;;;9.80;5.33;;;;;;;-145.69;100.00;72723.88;5033397;28;20226;-74
2022/10/03 05:34:10;;;;;;;9.07;5.30;;;;;;;-145.69;100.00;72747.78;5033546;28;20203;-74
2022/10/03 05:36:58;;;;;;;10.17;6.13;;;;;;;-145.69;100.00;72771.66;5033105;28;20215;-74
2022/10/03 05:39:28;;;;;;;12.27;6.20;;;;;;;-145.69;100.00;72783.59;5033242;28;20654;-75
2022/10/03 05:42:06;;;;;;;11.17;6.67;;;;;;;-145.69;100.00;72799.53;5032631;28;20196;-74
2022/10/03 05:44:42;;;;;;;17.30;7.60;;;;;;;-145.69;100.00;72807.47;5033144;28;20566;-74
2022/10/03 05:50:17;;;;;;;10.63;6.83;;;;;;;-145.69;100.00;72831.38;5032877;28;20195;-74
2022/10/03 05:52:57;;;;;;;11.27;6.33;;;;;;;-145.69;100.00;72823.41;5032824;28;20227;-74
2022/10/03 05:55:34;;;;;;;15.67;7.60;;;;;;;-145.69;100.00;72803.50;5033225;28;20204;-74
2022/10/03 05:58:21;;;;;;;13.47;7.20;;;;;;;-145.69;100.00;72779.63;5032969;28;20203;-74
2022/10/03 06:01:17;;;;;;;17.70;9.50;;;;;;;-145.69;100.00;72751.75;5032903;28;20196;-74
2022/10/03 06:04:26;;;;;;;64.27;10.87;;;;;;;-145.69;100.00;72723.88;5033005;28;20196;-74
2022/10/03 06:07:09;;;;;;;17.37;8.90;;;;;;;-145.69;100.00;72694.03;5032604;28;20555;-74
2022/10/03 06:10:17;;;;;;;22.43;9.80;;;;;;;-145.69;100.00;72660.19;5032949;28;20204;-75
2022/10/03 06:12:51;;;;;;;16.40;8.23;;;;;;;-145.69;100.00;72642.28;5024528;28;20207;-74
2022/10/03 06:15:38;;;;;;;20.27;8.43;;;;;;;-145.69;100.00;72620.38;5032617;28;20203;-74
2022/10/03 06:18:30;;;;;;;23.80;8.57;;;;;;;-145.69;100.00;72642.28;5032903;28;20203;-75
2022/10/03 06:21:24;;;;;;;133.80;10.77;;;;;;;-145.69;100.00;72636.31;5032415;28;20204;-74
2022/10/03 06:24:19;;;;;;;45.53;8.60;;;;;;;-145.69;100.00;72654.22;5033052;28;20216;-74
2022/10/03 06:27:07;;;;;;;11.07;6.70;;;;;;;-145.69;100.00;72650.22;5032733;28;20204;-74
2022/10/03 06:30:04;;;;;;;28.87;10.90;;;;;;;-145.69;100.00;72626.34;5032218;28;20196;-74
2022/10/03 06:33:11;;;;;;;22.83;9.73;;;;;;;-145.69;100.00;72622.38;5013097;28;20200;-74
2022/10/03 06:36:09;;;;;;;33.37;10.43;;;;;;;-145.69;100.00;72640.28;5013041;28;20205;-74
2022/10/03 06:39:12;;;;;;;21.47;10.47;;;;;;;-145.69;100.00;72624.34;5015062;28;20248;-75
2022/10/03 06:42:08;;;;;;;50.40;9.27;;;;;;;-145.69;100.00;72608.44;5018754;28;20199;-74
2022/10/03 06:44:55;;;;;;;37.90;10.03;;;;;;;-145.69;100.00;72580.56;5036674;28;20211;-74
2022/10/03 06:47:38;;;;;;;252.87;13.77;;;;;;;-145.69;100.00;72610.44;5036336;28;20224;-74
2022/10/03 06:50:31;;;;;;;40.43;7.17;;;;;;;-145.69;100.00;72594.50;5036388;28;20200;-74
2022/10/03 06:53:15;;;;;;;286.67;16.03;;;;;;;-145.69;100.00;72608.44;5035811;28;20639;-74
2022/10/03 06:55:56;;;;;;;44.27;9.20;;;;;;;-145.69;100.00;72578.56;5036516;28;20633;-74
2022/10/03 06:58:55;;;;;;;241.90;16.07;;;;;;;-145.69;100.00;72588.53;5036282;28;20226;-74
2022/10/03 07:01:49;;;;;;;143.97;13.73;;;;;;;-145.69;100.00;72600.47;5036329;28;20207;-75
2022/10/03 07:04:35;;;;;;;20.73;8.20;;;;;;;-145.69;100.00;72532.78;5036206;28;20291;-74
2022/10/03 07:07:46;;;;;;;21.03;9.90;;;;;;;-145.69;100.00;72544.75;5036073;28;20200;-74
2022/10/03 07:10:24;;;;;;;23.77;9.60;;;;;;;-145.69;100.00;72548.72;5035792;28;20204;-75
2022/10/03 07:13:14;;;;;;;23.87;9.37;;;;;;;-145.69;100.00;72532.78;5035878;28;20200;-74
2022/10/03 07:15:57;;;;;;;25.13;10.57;;;;;;;-145.69;100.00;72493.00;5035707;28;20242;-75
2022/10/03 07:19:08;;;;;;;27.77;13.52;;;;;;;-145.69;100.00;72481.03;5034741;28;20441;-75
2022/10/03 07:22:08;;;;;;;19.25;8.82;;;;;;;-145.69;100.00;72512.91;5007552;28;20226;-74
2022/10/03 07:25:02;;;;;;;21.43;8.83;;;;;;;-145.69;100.00;72508.91;5035665;28;20562;-74
2022/10/03 07:27:49;;;;;;;17.10;8.83;;;;;;;-145.69;100.00;72494.97;5033121;28;20227;-74
2022/10/03 07:30:17;;;;;;;24.42;10.88;;;;;;;-145.69;100.00;72479.06;5035544;28;20254;-74
2022/10/03 07:33:21;;;;;;;17.67;8.27;;;;;;;-145.69;100.00;72471.09;5035831;28;20200;-75
2022/10/03 07:39:34;;;;;;;22.45;10.20;;;;;;;-145.69;100.00;72447.22;5035564;28;20208;-74
2022/10/03 07:42:53;;;;;;;16.27;7.32;;;;;;;-145.69;100.00;72487.00;5035127;28;20211;-75
2022/10/03 07:45:32;;;;;;;11.88;6.85;;;;;;;-145.69;100.00;72423.31;4974299;28;20202;-74
2022/10/03 07:48:35;;;;;;;18.15;8.98;;;;;;;-145.69;100.00;72341.72;4974419;28;20324;-75
2022/10/03 07:51:23;;;;;;;18.13;10.35;;;;;;;-145.69;100.00;72327.78;5002956;28;20204;-74
2022/10/03 07:54:28;;;;;;;8.48;5.28;;;;;;;-145.69;100.00;72415.38;5035423;28;20204;-74
2022/10/03 07:57:10;;;;;;;9.38;5.47;;;;;;;-145.69;100.00;72371.56;5035385;28;20210;-73
2022/10/03 08:00:08;;;;;;;10.70;5.45;;;;;;;-145.69;100.00;72375.56;5035395;28;20211;-74
2022/10/03 08:02:51;;;;;;;7.28;5.03;;;;;;;-145.69;100.00;72403.41;5024631;28;20200;-74
2022/10/03 08:05:37;;;;;;;9.40;5.30;;;;;;;-145.69;100.00;72347.69;5029249;28;20749;-74
2022/10/03 08:08:39;;;;;;;9.40;5.60;;;;;;;-145.69;100.00;72313.84;5033880;28;20523;-74
2022/10/03 08:11:37;;;;;;;11.48;6.18;;;;;;;-145.69;100.00;72391.47;5034712;28;20286;-75
2022/10/03 08:14:21;;;;;;;9.07;4.60;;;;;;;-145.69;100.00;72357.66;5034695;28;20223;-74
2022/10/03 08:17:25;;;;;;;12.27;5.57;;;;;;;-145.69;100.00;72327.78;5024142;28;20243;-75
2022/10/03 08:20:28;;;;;;;14.60;6.90;;;;;;;-145.69;100.00;72321.81;5014844;28;20231;-74
2022/10/03 08:23:23;;;;;;;11.38;5.90;;;;;;;-145.69;100.00;72341.72;4998337;28;20208;-75
2022/10/03 08:26:01;;;;;;;13.07;6.00;;;;;;;-145.69;100.00;72325.81;5014852;28;20663;-74
2022/10/03 08:28:45;;;;;;;13.27;6.43;;;;;;;-145.69;100.00;72305.91;5014725;28;20260;-74
2022/10/03 08:31:43;;;;;;;10.13;5.97;;;;;;;-145.69;100.00;72274.06;5033795;28;20666;-74
2022/10/03 08:34:32;;;;;;;15.63;5.50;;;;;;;-145.69;100.00;72289.97;5034348;28;20204;-74
2022/10/03 08:37:32;;;;;;;10.00;5.32;;;;;;;-145.69;100.00;72280.03;5032673;28;20231;-75
2022/10/03 08:40:36;;;;;;;11.50;6.38;;;;;;;-145.69;100.00;72224.28;5016919;28;20208;-74
2022/10/03 08:43:29;;;;;;;13.52;6.68;;;;;;;-145.69;100.00;72222.31;4997906;28;20657;-76
2022/10/03 08:46:09;;;;;;;13.85;6.53;;;;;;;-145.69;100.00;72280.03;5013322;28;20239;-75
2022/10/03 08:48:56;;;;;;;11.95;6.22;;;;;;;-145.69;100.00;72289.97;5014357;28;20228;-73
2022/10/03 08:52:02;;;;;;;13.18;6.30;;;;;;;-145.69;100.00;72313.84;5014306;28;20205;-75
2022/10/03 08:54:50;;;;;;;12.75;6.88;;;;;;;-145.69;100.00;72325.81;5020222;28;20280;-73
2022/10/03 08:57:44;;;;;;;12.55;5.70;;;;;;;-145.69;100.00;72315.84;5014430;28;20275;-75
2022/10/03 09:00:20;;;;;;;10.45;6.53;;;;;;;-145.69;100.00;72337.75;5014282;28;20207;-74
2022/10/03 09:03:20;;;;;;;12.48;5.93;;;;;;;-145.69;100.00;72339.72;5014328;28;20211;-74
2022/10/03 09:06:23;;;;;;;12.03;6.30;;;;;;;-145.69;100.00;72367.59;5014105;28;20207;-74
2022/10/03 09:09:19;;;;;;;8.67;5.80;;;;;;;-145.69;100.00;72361.63;5013537;28;20247;-75
2022/10/03 09:12:18;;;;;;;15.93;6.37;;;;;;;-145.69;100.00;72371.56;5014196;28;20571;-74
2022/10/03 09:15:12;;;;;;;11.63;5.83;;;;;;;-145.69;100.00;72333.75;5014016;28;20205;-74
2022/10/03 09:18:13;;;;;;;16.92;7.75;;;;;;;-145.69;100.00;72301.91;5013559;28;20235;-75
2022/10/03 09:21:08;;;;;;;19.95;8.88;;;;;;;-145.69;100.00;72286.00;5013697;28;20204;-74
2022/10/03 09:24:14;;;;;;;21.88;8.88;;;;;;;-145.69;100.00;72244.19;5013818;28;20556;-76
2022/10/03 09:27:13;;;;;;;17.63;8.43;;;;;;;-145.69;100.00;72250.16;5013287;28;20647;-73
2022/10/03 09:30:15;;;;;;;11.30;6.65;;;;;;;-145.69;100.00;72170.56;5017183;28;20249;-74
2022/10/03 09:33:19;;;;;;;10.90;6.28;;;;;;;-145.69;100.00;72168.56;5033225;28;20200;-73
2022/10/03 09:36:09;;;;;;;10.27;6.55;;;;;;;-145.69;100.00;72142.69;5032534;28;20210;-73
2022/10/03 09:38:59;;;;;;;14.60;6.53;;;;;;;-145.69;100.00;72152.66;5033347;28;20223;-73
2022/10/03 09:41:44;;;;;;;10.10;5.90;;;;;;;-145.69;100.00;72051.16;5000090;28;20211;-73
2022/10/03 09:44:33;;;;;;;10.07;5.22;;;;;;;-145.69;100.00;72084.97;5032986;28;20203;-74
2022/10/03 09:47:32;;;;;;;11.27;5.82;;;;;;;-145.69;100.00;72079.00;5032850;28;20204;-73
2022/10/03 09:50:36;;;;;;;12.57;6.18;;;;;;;-145.69;100.00;72023.28;5032909;28;20220;-73
2022/10/03 09:53:34;;;;;;;11.02;5.20;;;;;;;-145.69;100.00;72057.13;5033030;28;20199;-73
2022/10/03 09:56:29;;;;;;;8.60;4.60;;;;;;;-145.69;100.00;72055.13;5032893;28;20311;-74
2022/10/03 09:59:23;;;;;;;13.18;5.07;;;;;;;-145.69;100.00;72174.53;5033065;28;20257;-74
2022/10/03 10:02:01;;;;;;;14.38;5.97;;;;;;;-145.69;100.00;72184.50;4999804;28;20673;-74
2022/10/03 10:04:47;;;;;;;9.27;6.25;;;;;;;-145.69;100.00;72206.38;5032790;28;20345;-74
2022/10/03 10:07:59;;;;;;;9.35;5.43;;;;;;;-145.69;100.00;72180.50;5032966;28;20208;-74
2022/10/03 10:10:56;;;;;;;10.38;5.18;;;;;;;-145.69;100.00;72194.44;5032774;28;20283;-74
2022/10/03 10:14:19;;;;;;;12.35;6.10;;;;;;;-145.69;100.00;72190.47;5036523;28;20282;-74
2022/10/03 10:17:08;;;;;;;10.55;5.68;;;;;;;-145.69;100.00;72202.41;5038946;28;20707;-73
2022/10/03 10:19:51;;;;;;;8.65;5.18;;;;;;;-145.69;100.00;72238.22;5039408;28;20200;-74
2022/10/03 10:22:56;;;;;;;9.25;5.15;;;;;;;-145.69;100.00;72192.44;5039334;28;20206;-74
2022/10/03 10:25:43;;;;;;;11.05;5.40;;;;;;;-145.69;100.00;72150.66;5039218;28;20722;-74
2022/10/03 10:28:41;;;;;;;12.85;5.20;;;;;;;-145.69;100.00;72146.69;5039256;28;20199;-74
2022/10/03 10:31:53;;;;;;;8.35;4.22;;;;;;;-145.69;100.00;72102.88;5039097;28;20204;-74
2022/10/03 10:35:00;;;;;;;13.45;5.00;;;;;;;-145.69;100.00;72128.75;5039049;28;20199;-74
2022/10/03 10:38:15;;;;;;;8.05;4.93;;;;;;;-145.69;100.00;72134.72;5039507;28;20547;-74
2022/10/03 10:41:35;;;;;;;10.88;4.32;;;;;;;-145.69;100.00;72110.84;5021341;28;20203;-74
2022/10/03 10:44:44;;;;;;;11.00;4.50;;;;;;;-145.69;100.00;72142.69;5038971;28;20200;-74
2022/10/03 10:47:44;;;;;;;10.80;4.47;;;;;;;-145.69;100.00;72154.63;5038779;28;20239;-74
2022/10/03 10:50:43;;;;;;;9.75;4.20;;;;;;;-145.69;100.00;72134.72;5038289;28;20227;-74
2022/10/03 10:53:46;;;;;;;8.88;4.35;;;;;;;-145.69;100.00;72142.69;5029975;28;20200;-74
2022/10/03 10:57:00;;;;;;;8.23;3.80;;;;;;;-145.69;100.00;72128.75;5038738;28;20199;-75
2022/10/03 11:00:04;;;;;;;9.02;3.63;;;;;;;-145.69;100.00;72134.72;5019222;28;20237;-75
2022/10/03 11:03:07;;;;;;;11.68;4.13;;;;;;;-145.69;100.00;72082.97;5019013;28;20670;-77
2022/10/03 11:06:03;;;;;;;10.23;4.50;;;;;;;-145.69;100.00;72027.25;5018789;28;20689;-75
2022/10/03 11:09:16;;;;;;;9.50;4.70;;;;;;;-145.69;100.00;72019.31;5017927;28;20455;-77
2022/10/03 11:12:20;;;;;;;15.57;4.30;;;;;;;-145.69;100.00;72051.16;5019375;28;20559;-77
2022/10/03 11:15:24;;;;;;;10.50;4.70;;;;;;;-145.69;100.00;72057.13;5018914;28;20200;-77
2022/10/03 11:18:31;;;;;;;9.00;4.38;;;;;;;-145.69;100.00;72047.16;5019083;28;20258;-76
2022/10/03 11:21:35;;;;;;;7.68;4.05;;;;;;;-145.69;100.00;72031.25;5019036;28;20211;-76
2022/10/03 11:24:41;;;;;;;10.63;3.95;;;;;;;-145.69;100.00;72065.06;5017535;28;20236;-76
2022/10/03 11:27:51;;;;;;;10.10;3.85;;;;;;;-145.69;100.00;72086.97;4998760;28;20671;-75
2022/10/03 11:30:56;;;;;;;9.43;4.10;;;;;;;-145.69;100.00;72051.16;5024487;28;20228;-75
2022/10/03 11:34:02;;;;;;;12.77;4.55;;;;;;;-145.69;100.00;72047.16;5035583;28;20278;-75
2022/10/03 11:37:09;;;;;;;9.82;3.75;;;;;;;-145.69;100.00;72027.25;5010423;28;20207;-75
2022/10/03 11:39:47;;;;;;;12.10;3.85;;;;;;;-145.69;100.00;72011.34;5035531;28;20797;-75
2022/10/03 11:42:27;;;;;;;8.73;3.88;;;;;;;-145.69;100.00;71973.53;5034565;28;20440;-76
2022/10/03 11:45:00;;;;;;;5.30;3.22;;;;;;;-145.69;100.00;71911.84;5035174;28;20588;-76
2022/10/03 11:48:17;;;;;;;10.77;3.53;;;;;;;-145.69;100.00;71929.75;5035400;28;20228;-75
2022/10/03 11:50:48;;;;;;;8.57;3.10;;;;;;;-145.69;99.29;71931.72;4973893;28;20206;-75
2022/10/03 11:53:42;;;;;;;8.90;3.42;;;;;;;-145.69;100.00;71965.56;4974107;28;20213;-76
2022/10/03 11:56:33;;;;;;;9.38;3.78;;;;;;;-145.69;100.00;71967.56;5018827;28;20208;-76
2022/10/03 11:59:29;;;;;;;7.70;3.60;;;;;;;-145.69;100.00;72017.31;5035060;28;20208;-76
2022/10/03 12:02:09;;;;;;;9.05;3.40;;;;;;;-145.69;100.00;71999.41;5028974;28;20203;-76
2022/10/03 12:04:49;;;;;;;10.88;3.75;;;;;;;-145.69;100.00;71991.44;5035025;28;20322;-75
2022/10/03 12:10:37;;;;;;;10.25;3.28;;;;;;;-145.69;100.00;71967.56;5032986;28;20378;-75
2022/10/03 12:13:13;;;;;;;9.00;3.53;;;;;;;-145.69;100.00;71969.53;5034182;28;20294;-75
2022/10/03 12:15:45;;;;;;;8.32;3.50;;;;;;;-145.69;100.00;71939.69;5014601;28;20205;-75
2022/10/03 12:18:17;;;;;;;10.23;2.85;;;;;;;-145.69;100.00;71933.72;5014564;28;20686;-76
2022/10/03 12:21:06;;;;;;;8.93;3.13;;;;;;;-145.69;100.00;71895.91;5014746;28;20204;-76
2022/10/03 12:23:51;;;;;;;6.43;3.20;;;;;;;-145.69;99.26;71872.03;5014958;28;20197;-75
2022/10/03 12:26:28;;;;;;;10.68;3.25;;;;;;;-145.69;100.00;71876.00;5014616;28;20196;-75
2022/10/03 12:28:57;;;;;;;8.52;3.28;;;;;;;-145.69;100.00;71903.88;5014761;28;20228;-75
2022/10/03 12:31:31;;;;;;;7.45;3.20;;;;;;;-145.69;100.00;71945.66;5032599;28;20283;-74
2022/10/03 12:34:14;;;;;;;7.55;3.33;;;;;;;-145.69;100.00;71959.59;5034635;28;20243;-76
2022/10/03 12:36:51;;;;;;;9.18;3.45;;;;;;;-145.69;100.00;71965.56;5033807;28;20203;-76
2022/10/03 12:39:28;;;;;;;9.25;3.60;;;;;;;-145.69;100.00;71993.44;5033545;28;20499;-76
2022/10/03 12:42:14;;;;;;;10.32;3.63;;;;;;;-145.69;100.00;71995.41;5034184;28;20204;-73
2022/10/03 12:44:49;;;;;;;6.60;2.85;;;;;;;-145.69;100.00;71987.47;5033916;28;20206;-75
2022/10/03 12:47:28;;;;;;;8.10;3.05;;;;;;;-145.69;100.00;71949.66;5034456;28;20206;-75
2022/10/03 12:49:59;;;;;;;12.90;3.42;;;;;;;-145.69;100.00;71935.72;5033996;28;20713;-75
2022/10/03 12:52:29;;;;;;;6.07;2.88;;;;;;;-145.69;100.00;71927.75;5033553;28;20223;-75